createdAt,value
2018-09-08T00:01:33.936Z,16.33
2018-09-08T00:04:04.042Z,16.28
2018-09-08T00:06:35.405Z,16.21
2018-09-08T00:09:08.045Z,16.18
2018-09-08T00:11:37.099Z,16.14
2018-09-08T00:14:07.671Z,16.12
2018-09-08T00:16:44.528Z,16.08
2018-09-08T00:19:19.999Z,16.06
2018-09-08T00:21:58.113Z,16.02
2018-09-08T00:24:33.388Z,15.99
2018-09-08T00:27:06.081Z,15.92
2018-09-08T00:29:40.703Z,15.87
2018-09-08T00:32:12.840Z,15.84
2018-09-08T00:34:43.073Z,15.80
2018-09-08T00:37:11.733Z,15.74
2018-09-08T00:39:42.725Z,15.72
2018-09-08T00:42:11.960Z,15.71
2018-09-08T00:44:40.826Z,15.73
2018-09-08T00:47:10.652Z,15.68
2018-09-08T00:49:40.397Z,15.67
2018-09-08T00:52:09.781Z,15.63
2018-09-08T00:54:38.510Z,15.58
2018-09-08T00:57:07.450Z,15.57
2018-09-08T00:59:36.114Z,15.56
2018-09-08T01:02:05.208Z,15.58
2018-09-08T01:04:34.173Z,15.47
2018-09-08T01:07:04.905Z,15.44
2018-09-08T01:09:34.171Z,15.39
2018-09-08T01:12:03.297Z,15.36
2018-09-08T01:14:32.575Z,15.38
2018-09-08T01:17:01.842Z,15.43
2018-09-08T01:19:31.636Z,15.43
2018-09-08T01:22:01.999Z,15.42
2018-09-08T01:24:33.450Z,15.37
2018-09-08T01:27:02.076Z,15.35
2018-09-08T01:29:32.432Z,15.31
2018-09-08T01:32:02.515Z,15.25
2018-09-08T01:34:31.095Z,15.33
2018-09-08T01:36:59.990Z,15.39
2018-09-08T01:39:30.980Z,15.41
2018-09-08T01:42:00.766Z,15.43
2018-09-08T01:44:30.097Z,15.50
2018-09-08T01:46:59.401Z,15.59
2018-09-08T01:49:28.590Z,15.68
2018-09-08T01:51:57.760Z,15.75
2018-09-08T01:54:28.105Z,15.84
2018-09-08T01:56:57.412Z,15.95
2018-09-08T01:59:27.370Z,16.09
2018-09-08T02:01:56.566Z,16.20
2018-09-08T02:04:26.094Z,16.28
2018-09-08T02:06:54.942Z,16.28
2018-09-08T02:09:23.685Z,16.25
2018-09-08T02:11:53.865Z,16.29
2018-09-08T02:14:22.525Z,16.31
2018-09-08T02:16:51.259Z,16.33
2018-09-08T02:19:21.493Z,16.34
2018-09-08T02:21:54.770Z,16.31
2018-09-08T02:24:25.304Z,16.33
2018-09-08T02:26:54.084Z,16.29
2018-09-08T02:29:22.832Z,16.21
2018-09-08T02:31:53.095Z,16.14
2018-09-08T02:34:23.738Z,16.15
2018-09-08T02:36:52.825Z,16.15
2018-09-08T02:39:22.391Z,16.18
2018-09-08T02:41:52.468Z,16.16
2018-09-08T02:44:21.229Z,16.07
2018-09-08T02:46:51.018Z,16.08
2018-09-08T02:49:20.488Z,16.10
2018-09-08T02:51:47.844Z,16.06
2018-09-08T02:54:15.195Z,15.87
2018-09-08T02:56:42.641Z,15.83
2018-09-08T02:59:10.146Z,15.77
2018-09-08T03:01:37.615Z,15.75
2018-09-08T03:04:04.901Z,15.64
2018-09-08T03:06:32.346Z,15.59
2018-09-08T03:08:59.640Z,15.55
2018-09-08T03:11:26.917Z,15.44
2018-09-08T03:13:54.715Z,15.40
2018-09-08T03:16:22.047Z,15.38
2018-09-08T03:18:49.450Z,15.37
2018-09-08T03:21:17.594Z,15.24
2018-09-08T03:23:46.623Z,15.26
2018-09-08T03:26:16.700Z,15.13
2018-09-08T03:28:44.357Z,15.12
2018-09-08T03:31:11.689Z,15.06
2018-09-08T03:33:39.167Z,15.07
2018-09-08T03:36:07.650Z,15.11
2018-09-08T03:38:35.188Z,15.15
2018-09-08T03:41:03.722Z,15.06
2018-09-08T03:43:31.036Z,15.06
2018-09-08T03:45:58.352Z,14.99
2018-09-08T03:48:26.575Z,15.02
2018-09-08T03:50:54.200Z,15.05
2018-09-08T03:53:21.553Z,14.99
2018-09-08T03:55:48.888Z,14.95
2018-09-08T03:58:16.636Z,14.96
2018-09-08T04:00:44.953Z,14.92
2018-09-08T04:03:14.476Z,14.91
2018-09-08T04:05:43.763Z,14.88
2018-09-08T04:08:12.202Z,14.91
2018-09-08T04:10:42.020Z,14.96
2018-09-08T04:13:10.808Z,14.99
2018-09-08T04:15:40.675Z,14.99
2018-09-08T04:18:09.827Z,14.96
2018-09-08T04:20:40.734Z,14.99
2018-09-08T04:23:09.554Z,15.04
2018-09-08T04:25:38.360Z,15.02
2018-09-08T04:28:07.042Z,15.08
2018-09-08T04:30:35.809Z,15.04
2018-09-08T04:33:05.578Z,14.93
2018-09-08T04:35:35.607Z,14.98
2018-09-08T04:38:05.082Z,15.02
2018-09-08T04:40:33.911Z,15.05
2018-09-08T04:43:03.807Z,15.12
2018-09-08T04:45:32.487Z,15.05
2018-09-08T04:48:02.063Z,15.03
2018-09-08T04:50:31.198Z,15.03
2018-09-08T04:53:00.027Z,15.01
2018-09-08T04:55:28.776Z,15.07
2018-09-08T04:57:58.435Z,14.90
2018-09-08T05:00:27.020Z,14.97
2018-09-08T05:02:55.612Z,15.00
2018-09-08T05:05:25.611Z,14.97
2018-09-08T05:07:54.763Z,15.01
2018-09-08T05:10:24.324Z,15.08
2018-09-08T05:12:53.992Z,15.14
2018-09-08T05:15:22.546Z,15.09
2018-09-08T05:17:51.100Z,15.15
2018-09-08T05:20:20.885Z,15.12
2018-09-08T05:22:50.276Z,15.24
2018-09-08T05:25:18.883Z,15.25
2018-09-08T05:27:47.548Z,15.23
2018-09-08T05:30:17.896Z,15.28
2018-09-08T05:32:48.809Z,15.35
2018-09-08T05:35:18.180Z,15.37
2018-09-08T05:37:47.874Z,15.40
2018-09-08T05:40:17.368Z,15.39
2018-09-08T05:42:46.240Z,15.50
2018-09-08T05:45:15.198Z,15.52
2018-09-08T05:47:44.655Z,15.56
2018-09-08T05:50:15.061Z,15.53
2018-09-08T05:52:44.054Z,15.56
2018-09-08T05:55:12.691Z,15.72
2018-09-08T05:57:43.685Z,15.79
2018-09-08T06:00:12.365Z,15.72
2018-09-08T06:02:41.039Z,15.70
2018-09-08T06:05:11.807Z,15.73
2018-09-08T06:07:41.466Z,15.72
2018-09-08T06:10:11.788Z,15.76
2018-09-08T06:12:40.473Z,15.77
2018-09-08T06:15:09.618Z,15.74
2018-09-08T06:17:39.698Z,15.75
2018-09-08T06:20:08.589Z,15.82
2018-09-08T06:22:37.683Z,15.91
2018-09-08T06:25:06.655Z,15.95
2018-09-08T06:27:36.101Z,15.96
2018-09-08T06:30:06.195Z,16.00
2018-09-08T06:32:36.029Z,16.06
2018-09-08T06:35:05.033Z,16.10
2018-09-08T06:37:33.942Z,16.11
2018-09-08T06:40:04.005Z,16.06
2018-09-08T06:42:33.053Z,16.06
2018-09-08T06:45:03.610Z,16.06
2018-09-08T06:47:32.190Z,16.04
2018-09-08T06:50:00.955Z,16.12
2018-09-08T06:52:31.767Z,16.14
2018-09-08T06:55:00.430Z,16.21
2018-09-08T06:57:29.183Z,16.23
2018-09-08T06:59:59.764Z,16.29
2018-09-08T07:02:28.760Z,16.27
2018-09-08T07:04:58.684Z,16.29
2018-09-08T07:07:27.337Z,16.28
2018-09-08T07:09:56.194Z,16.12
2018-09-08T07:12:24.838Z,16.09
2018-09-08T07:14:53.459Z,16.17
2018-09-08T07:17:22.287Z,16.23
2018-09-08T07:19:51.384Z,16.31
2018-09-08T07:22:22.730Z,16.36
2018-09-08T07:24:52.004Z,16.44
2018-09-08T07:27:21.248Z,16.46
2018-09-08T07:29:51.113Z,16.42
2018-09-08T07:32:24.710Z,16.43
2018-09-08T07:34:55.259Z,16.46
2018-09-08T07:37:24.091Z,16.51
2018-09-08T07:39:54.501Z,16.55
2018-09-08T07:42:23.626Z,16.56
2018-09-08T07:44:52.267Z,16.55
2018-09-08T07:47:21.016Z,16.60
2018-09-08T07:49:49.764Z,16.68
2018-09-08T07:52:22.355Z,16.68
2018-09-08T07:54:51.067Z,16.71
2018-09-08T07:57:20.299Z,16.77
2018-09-08T07:59:48.867Z,16.79
2018-09-08T08:02:24.244Z,16.87
2018-09-08T08:04:53.530Z,16.89
2018-09-08T08:07:22.241Z,16.97
2018-09-08T08:09:51.007Z,16.96
2018-09-08T08:12:19.578Z,16.99
2018-09-08T08:14:48.274Z,17.05
2018-09-08T08:17:16.886Z,17.13
2018-09-08T08:19:45.517Z,17.20
2018-09-08T08:22:14.879Z,17.25
2018-09-08T08:24:43.623Z,17.28
2018-09-08T08:27:12.246Z,17.30
2018-09-08T08:29:40.909Z,17.39
2018-09-08T08:32:09.796Z,17.41
2018-09-08T08:34:38.734Z,17.50
2018-09-08T08:37:08.403Z,17.59
2018-09-08T08:39:36.974Z,17.62
2018-09-08T08:42:06.799Z,17.69
2018-09-08T08:44:39.754Z,17.65
2018-09-08T08:47:08.537Z,17.68
2018-09-08T08:49:37.234Z,17.72
2018-09-08T08:52:16.920Z,17.79
2018-09-08T08:54:48.190Z,17.85
2018-09-08T08:57:17.166Z,17.88
2018-09-08T08:59:47.255Z,17.98
2018-09-08T09:02:16.806Z,18.08
2018-09-08T09:04:45.411Z,18.22
2018-09-08T09:07:14.542Z,18.32
2018-09-08T09:09:48.514Z,18.37
2018-09-08T09:12:17.062Z,18.38
2018-09-08T09:14:45.717Z,18.41
2018-09-08T09:17:15.266Z,18.44
2018-09-08T09:19:55.059Z,18.54
2018-09-08T09:22:35.933Z,18.58
2018-09-08T09:25:06.546Z,18.59
2018-09-08T09:27:37.834Z,18.64
2018-09-08T09:30:13.518Z,18.73
2018-09-08T09:32:48.625Z,18.79
2018-09-08T09:35:19.178Z,18.81
2018-09-08T09:37:48.837Z,18.87
2018-09-08T09:40:18.782Z,18.92
2018-09-08T09:42:47.474Z,18.91
2018-09-08T09:45:16.811Z,19.02
2018-09-08T09:47:56.814Z,19.11
2018-09-08T09:50:28.030Z,19.16
2018-09-08T09:52:57.737Z,19.20
2018-09-08T09:55:26.378Z,19.25
2018-09-08T09:57:55.021Z,19.24
2018-09-08T10:00:29.931Z,19.22
2018-09-08T10:03:05.337Z,19.32
2018-09-08T10:05:33.955Z,19.44
2018-09-08T10:08:04.586Z,19.47
2018-09-08T10:10:34.945Z,19.50
2018-09-08T10:13:06.441Z,19.60
2018-09-08T10:15:35.215Z,19.76
2018-09-08T10:18:06.234Z,19.95
2018-09-08T10:20:35.719Z,19.96
2018-09-08T10:23:05.065Z,19.96
2018-09-08T10:25:35.222Z,19.70
2018-09-08T10:28:05.328Z,19.61
2018-09-08T10:30:34.818Z,19.73
2018-09-08T10:33:04.096Z,19.76
2018-09-08T10:35:33.074Z,19.73
2018-09-08T10:38:03.930Z,19.81
2018-09-08T10:40:33.737Z,19.95
2018-09-08T10:43:02.761Z,20.07
2018-09-08T10:45:31.849Z,20.11
2018-09-08T10:48:00.701Z,20.11
2018-09-08T10:50:30.345Z,20.15
2018-09-08T10:52:59.136Z,20.15
2018-09-08T10:55:28.119Z,20.14
2018-09-08T10:57:56.896Z,20.08
2018-09-08T11:00:25.490Z,20.15
2018-09-08T11:02:54.521Z,20.29
2018-09-08T11:05:24.058Z,20.35
2018-09-08T11:07:52.890Z,20.29
2018-09-08T11:10:21.491Z,20.33
2018-09-08T11:12:50.380Z,20.40
2018-09-08T11:15:19.150Z,20.43
2018-09-08T11:17:47.774Z,20.41
2018-09-08T11:20:16.466Z,20.45
2018-09-08T11:22:45.333Z,20.42
2018-09-08T11:25:14.689Z,20.39
2018-09-08T11:27:43.406Z,20.32
2018-09-08T11:30:12.018Z,20.24
2018-09-08T11:32:40.561Z,20.12
2018-09-08T11:35:09.157Z,20.13
2018-09-08T11:37:37.874Z,20.12
2018-09-08T11:40:07.659Z,20.23
2018-09-08T11:42:37.220Z,20.29
2018-09-08T11:45:06.691Z,20.37
2018-09-08T11:47:35.236Z,20.38
2018-09-08T11:50:04.076Z,20.30
2018-09-08T11:52:32.707Z,20.35
2018-09-08T11:55:01.941Z,20.42
2018-09-08T11:57:30.480Z,20.49
2018-09-08T11:59:59.015Z,20.58
2018-09-08T12:02:27.855Z,20.80
2018-09-08T12:04:57.080Z,20.84
2018-09-08T12:07:27.299Z,20.79
2018-09-08T12:09:56.150Z,20.53
2018-09-08T12:12:24.769Z,20.50
2018-09-08T12:14:53.356Z,20.48
2018-09-08T12:17:22.140Z,20.48
2018-09-08T12:19:51.641Z,20.51
2018-09-08T12:22:20.856Z,20.48
2018-09-08T12:24:49.550Z,20.52
2018-09-08T12:27:18.176Z,20.50
2018-09-08T12:29:47.697Z,20.43
2018-09-08T12:32:16.370Z,20.43
2018-09-08T12:34:45.731Z,20.43
2018-09-08T12:37:15.845Z,20.48
2018-09-08T12:39:44.574Z,20.64
2018-09-08T12:42:13.640Z,20.86
2018-09-08T12:44:42.792Z,20.97
2018-09-08T12:47:11.478Z,21.07
2018-09-08T12:49:41.914Z,21.04
2018-09-08T12:52:11.590Z,20.97
2018-09-08T12:54:40.649Z,20.87
2018-09-08T12:57:09.606Z,20.83
2018-09-08T12:59:38.609Z,20.90
2018-09-08T13:02:07.223Z,21.04
2018-09-08T13:04:35.818Z,21.16
2018-09-08T13:07:04.550Z,21.19
2018-09-08T13:09:33.204Z,21.22
2018-09-08T13:12:02.628Z,21.19
2018-09-08T13:14:31.625Z,21.20
2018-09-08T13:17:00.136Z,21.12
2018-09-08T13:19:28.702Z,21.00
2018-09-08T13:21:57.439Z,20.94
2018-09-08T13:24:26.105Z,20.94
2018-09-08T13:26:54.806Z,20.99
2018-09-08T13:29:23.411Z,21.00
2018-09-08T13:31:52.701Z,21.04
2018-09-08T13:34:23.375Z,21.17
2018-09-08T13:36:52.054Z,21.23
2018-09-08T13:39:20.858Z,21.26
2018-09-08T13:41:49.536Z,21.17
2018-09-08T13:44:18.307Z,21.25
2018-09-08T13:46:47.640Z,21.44
2018-09-08T13:49:17.744Z,21.46
2018-09-08T13:51:46.992Z,21.41
2018-09-08T13:54:16.274Z,21.50
2018-09-08T13:56:44.930Z,21.37
2018-09-08T13:59:13.886Z,21.28
2018-09-08T14:01:42.588Z,21.30
2018-09-08T14:04:11.782Z,21.43
2018-09-08T14:06:40.731Z,21.81
2018-09-08T14:09:10.296Z,22.18
2018-09-08T14:11:39.048Z,22.48
2018-09-08T14:14:07.656Z,22.53
2018-09-08T14:16:37.865Z,22.61
2018-09-08T14:19:06.949Z,22.39
2018-09-08T14:21:36.310Z,22.16
2018-09-08T14:24:05.226Z,22.02
2018-09-08T14:26:34.448Z,22.38
2018-09-08T14:29:03.257Z,22.80
2018-09-08T14:31:31.937Z,23.04
2018-09-08T14:34:00.653Z,23.08
2018-09-08T14:36:30.632Z,23.08
2018-09-08T14:38:59.382Z,23.00
2018-09-08T14:41:28.063Z,23.01
2018-09-08T14:43:56.637Z,22.77
2018-09-08T14:46:25.431Z,22.56
2018-09-08T14:48:55.636Z,22.43
2018-09-08T14:51:25.315Z,22.23
2018-09-08T14:53:53.949Z,22.00
2018-09-08T14:56:23.756Z,21.91
2018-09-08T14:58:53.054Z,21.81
2018-09-08T15:01:22.498Z,21.78
2018-09-08T15:03:51.338Z,21.73
2018-09-08T15:06:20.392Z,21.73
2018-09-08T15:08:49.182Z,21.80
2018-09-08T15:11:19.555Z,22.15
2018-09-08T15:13:48.251Z,22.42
2018-09-08T15:16:16.848Z,22.48
2018-09-08T15:18:45.497Z,22.47
2018-09-08T15:21:14.494Z,22.44
2018-09-08T15:23:43.499Z,22.41
2018-09-08T15:26:12.232Z,22.35
2018-09-08T15:28:40.915Z,22.18
2018-09-08T15:31:09.710Z,21.96
2018-09-08T15:33:38.318Z,21.76
2018-09-08T15:36:07.680Z,21.64
2018-09-08T15:38:36.446Z,21.54
2018-09-08T15:41:05.022Z,21.53
2018-09-08T15:43:34.493Z,21.59
2018-09-08T15:46:04.801Z,21.81
2018-09-08T15:48:33.606Z,21.94
2018-09-08T15:51:03.793Z,21.86
2018-09-08T15:53:32.481Z,21.71
2018-09-08T15:56:01.520Z,21.67
2018-09-08T15:58:31.537Z,21.65
2018-09-08T16:01:00.879Z,21.37
2018-09-08T16:03:30.229Z,21.35
2018-09-08T16:05:59.079Z,21.31
2018-09-08T16:08:28.052Z,21.36
2018-09-08T16:10:58.515Z,21.35
2018-09-08T16:13:29.157Z,21.29
2018-09-08T16:15:57.819Z,21.26
2018-09-08T16:18:26.953Z,21.20
2018-09-08T16:20:56.669Z,21.20
2018-09-08T16:23:25.337Z,21.19
2018-09-08T16:25:54.086Z,21.15
2018-09-08T16:28:22.683Z,21.06
2018-09-08T16:30:51.265Z,21.03
2018-09-08T16:33:20.752Z,20.96
2018-09-08T16:35:50.612Z,20.95
2018-09-08T16:38:20.357Z,20.89
2018-09-08T16:40:49.062Z,20.82
2018-09-08T16:43:19.378Z,20.76
2018-09-08T16:45:48.282Z,20.70
2018-09-08T16:48:18.230Z,20.64
2018-09-08T16:50:47.667Z,20.62
2018-09-08T16:53:17.277Z,20.55
2018-09-08T16:55:45.968Z,20.49
2018-09-08T16:58:14.942Z,20.44
2018-09-08T17:00:43.969Z,20.36
2018-09-08T17:03:13.053Z,20.32
2018-09-08T17:05:42.364Z,20.29
2018-09-08T17:08:15.167Z,20.26
2018-09-08T17:10:45.059Z,20.20
2018-09-08T17:13:14.016Z,20.19
2018-09-08T17:15:43.648Z,20.18
2018-09-08T17:18:14.310Z,20.08
2018-09-08T17:20:44.353Z,20.06
2018-09-08T17:23:13.128Z,20.04
2018-09-08T17:25:42.352Z,20.00
2018-09-08T17:28:11.022Z,19.99
2018-09-08T17:30:41.180Z,19.96
2018-09-08T17:33:09.920Z,19.94
2018-09-08T17:35:39.635Z,19.94
2018-09-08T17:38:08.436Z,19.93
2018-09-08T17:40:38.955Z,19.88
2018-09-08T17:43:07.859Z,19.87
2018-09-08T17:45:37.679Z,19.89
2018-09-08T17:48:07.634Z,19.86
2018-09-08T17:50:36.230Z,19.86
2018-09-08T17:53:05.472Z,19.86
2018-09-08T17:55:35.692Z,19.87
2018-09-08T17:58:04.403Z,19.85
2018-09-08T18:00:34.183Z,19.86
2018-09-08T18:03:03.292Z,19.82
2018-09-08T18:05:31.844Z,19.80
2018-09-08T18:08:00.688Z,19.78
2018-09-08T18:10:30.033Z,19.77
2018-09-08T18:13:00.776Z,19.77
2018-09-08T18:15:29.547Z,19.76
2018-09-08T18:17:58.380Z,19.72
2018-09-08T18:20:28.533Z,19.65
2018-09-08T18:22:58.424Z,19.66
2018-09-08T18:25:32.565Z,19.63
2018-09-08T18:28:02.950Z,19.61
2018-09-08T18:30:32.371Z,19.56
2018-09-08T18:33:02.904Z,19.56
2018-09-08T18:35:31.888Z,19.52
2018-09-08T18:38:01.644Z,19.52
2018-09-08T18:40:30.277Z,19.53
2018-09-08T18:43:00.220Z,19.50
2018-09-08T18:45:30.053Z,19.47
2018-09-08T18:47:58.606Z,19.43
2018-09-08T18:50:27.230Z,19.42
2018-09-08T18:52:56.079Z,19.39
2018-09-08T18:55:25.388Z,19.38
2018-09-08T18:57:54.511Z,19.33
2018-09-08T19:00:23.091Z,19.29
2018-09-08T19:02:52.111Z,19.22
2018-09-08T19:05:21.231Z,19.14
2018-09-08T19:07:51.782Z,19.11
2018-09-08T19:10:20.778Z,19.02
2018-09-08T19:12:50.635Z,18.95
2018-09-08T19:15:21.802Z,18.87
2018-09-08T19:17:50.678Z,18.87
2018-09-08T19:20:25.559Z,18.81
2018-09-08T19:22:54.507Z,18.77
2018-09-08T19:25:45.640Z,18.73
2018-09-08T19:28:31.871Z,18.69
2018-09-08T19:31:01.826Z,18.66
2018-09-08T19:33:31.633Z,18.63
2018-09-08T19:36:04.167Z,18.61
2018-09-08T19:38:32.767Z,18.58
2018-09-08T19:41:02.477Z,18.55
2018-09-08T19:43:32.184Z,18.52
2018-09-08T19:46:05.039Z,18.50
2018-09-08T19:48:34.146Z,18.50
2018-09-08T19:51:03.665Z,18.48
2018-09-08T19:53:38.234Z,18.49
2018-09-08T19:56:07.033Z,18.49
2018-09-08T19:58:42.884Z,18.49
2018-09-08T20:01:14.768Z,18.47
2018-09-08T20:03:44.626Z,18.48
2018-09-08T20:06:13.988Z,18.50
2018-09-08T20:08:43.765Z,18.50
2018-09-08T20:11:12.565Z,18.49
2018-09-08T20:13:41.796Z,18.52
2018-09-08T20:16:11.275Z,18.51
2018-09-08T20:18:40.280Z,18.53
2018-09-08T20:21:08.987Z,18.53
2018-09-08T20:23:38.311Z,18.52
2018-09-08T20:26:07.527Z,18.51
2018-09-08T20:28:37.022Z,18.50
2018-09-08T20:31:05.833Z,18.49
2018-09-08T20:33:35.172Z,18.48
2018-09-08T20:36:04.269Z,18.48
2018-09-08T20:38:33.320Z,18.50
2018-09-08T20:41:03.756Z,18.53
2018-09-08T20:43:32.523Z,18.56
2018-09-08T20:46:02.689Z,18.53
2018-09-08T20:48:31.317Z,18.49
2018-09-08T20:51:03.149Z,18.46
2018-09-08T20:53:32.127Z,18.40
2018-09-08T20:56:01.840Z,18.37
2018-09-08T20:58:31.079Z,18.33
2018-09-08T21:01:00.104Z,18.30
2018-09-08T21:03:28.711Z,18.29
2018-09-08T21:05:57.377Z,18.30
2018-09-08T21:08:26.103Z,18.28
2018-09-08T21:10:54.924Z,18.26
2018-09-08T21:13:24.286Z,18.21
2018-09-08T21:15:53.582Z,18.15
2018-09-08T21:18:22.784Z,18.12
2018-09-08T21:20:51.385Z,18.08
2018-09-08T21:23:20.278Z,18.07
2018-09-08T21:25:49.406Z,18.06
2018-09-08T21:28:18.121Z,18.02
2018-09-08T21:30:47.609Z,17.98
2018-09-08T21:33:16.400Z,17.98
2018-09-08T21:35:45.389Z,17.94
2018-09-08T21:38:14.826Z,17.93
2018-09-08T21:40:44.657Z,17.93
2018-09-08T21:43:13.263Z,17.92
2018-09-08T21:45:43.078Z,17.87
2018-09-08T21:48:12.726Z,17.88
2018-09-08T21:50:42.933Z,17.88
2018-09-08T21:53:11.618Z,17.87
2018-09-08T21:55:41.635Z,17.83
2018-09-08T21:58:11.068Z,17.80
2018-09-08T22:00:42.668Z,17.82
2018-09-08T22:03:11.690Z,17.81
2018-09-08T22:05:40.752Z,17.81
2018-09-08T22:08:09.963Z,17.81
2018-09-08T22:10:39.154Z,17.81
2018-09-08T22:13:09.552Z,17.79
2018-09-08T22:15:38.447Z,17.76
2018-09-08T22:18:09.097Z,17.76
2018-09-08T22:20:37.831Z,17.74
2018-09-08T22:23:07.484Z,17.70
2018-09-08T22:25:36.128Z,17.68
2018-09-08T22:28:05.000Z,17.68
2018-09-08T22:30:33.792Z,17.72
2018-09-08T22:33:03.403Z,17.67
2018-09-08T22:35:32.283Z,17.67
2018-09-08T22:38:01.811Z,17.65
2018-09-08T22:40:30.447Z,17.64
2018-09-08T22:42:59.612Z,17.62
2018-09-08T22:45:29.296Z,17.54
2018-09-08T22:47:58.217Z,17.53
2018-09-08T22:50:27.728Z,17.55
2018-09-08T22:52:57.502Z,17.54
2018-09-08T22:55:26.633Z,17.56
2018-09-08T22:57:55.353Z,17.50
2018-09-08T23:00:24.201Z,17.48
2018-09-08T23:02:57.236Z,17.43
2018-09-08T23:05:30.395Z,17.39
2018-09-08T23:07:59.767Z,17.37
2018-09-08T23:10:28.465Z,17.37
2018-09-08T23:12:57.968Z,17.40
2018-09-08T23:15:27.165Z,17.42
2018-09-08T23:17:55.896Z,17.46
2018-09-08T23:20:25.038Z,17.38
2018-09-08T23:22:53.686Z,17.37
2018-09-08T23:25:22.908Z,17.35
2018-09-08T23:27:51.974Z,17.31
2018-09-08T23:30:21.195Z,17.26
2018-09-08T23:32:50.407Z,17.21
2018-09-08T23:35:19.493Z,17.13
2018-09-08T23:37:48.414Z,17.05
2018-09-08T23:40:17.141Z,17.02
2018-09-08T23:42:45.700Z,17.03
2018-09-08T23:45:14.290Z,17.06
2018-09-08T23:47:43.709Z,17.10
2018-09-08T23:50:12.320Z,17.06
2018-09-08T23:52:41.024Z,17.05
2018-09-08T23:55:09.728Z,17.02
2018-09-08T23:57:38.378Z,17.01
